sensor_id;sensor_type;location;lat;lon;timestamp;temperature;humidity
843;DHT22;407;48.884;9.126;2023-04-24T00:01:25;11.80;1.00
843;DHT22;407;48.884;9.126;2023-04-24T00:03:51;11.90;1.00
843;DHT22;407;48.884;9.126;2023-04-24T00:06:16;11.90;99.90
843;DHT22;407;48.884;9.126;2023-04-24T00:08:42;12.00;99.90
843;DHT22;407;48.884;9.126;2023-04-24T00:11:08;11.90;99.90
843;DHT22;407;48.884;9.126;2023-04-24T00:13:34;12.00;1.00
843;DHT22;407;48.884;9.126;2023-04-24T00:16:00;12.00;7.40
843;DHT22;407;48.884;9.126;2023-04-24T00:18:26;12.20;1.00
843;DHT22;407;48.884;9.126;2023-04-24T00:20:52;12.20;99.90
843;DHT22;407;48.884;9.126;2023-04-24T00:23:17;12.20;99.90
843;DHT22;407;48.884;9.126;2023-04-24T00:25:43;12.20;99.90
843;DHT22;407;48.884;9.126;2023-04-24T00:28:09;12.20;99.90
843;DHT22;407;48.884;9.126;2023-04-24T00:30:34;12.20;99.90
843;DHT22;407;48.884;9.126;2023-04-24T00:33:00;12.20;99.90
843;DHT22;407;48.884;9.126;2023-04-24T00:35:26;12.20;99.90
843;DHT22;407;48.884;9.126;2023-04-24T00:37:51;12.30;1.00
843;DHT22;407;48.884;9.126;2023-04-24T00:40:17;12.30;99.90
843;DHT22;407;48.884;9.126;2023-04-24T00:42:43;12.20;1.00
843;DHT22;407;48.884;9.126;2023-04-24T00:45:09;12.20;1.00
843;DHT22;407;48.884;9.126;2023-04-24T00:47:35;12.20;38.50
843;DHT22;407;48.884;9.126;2023-04-24T00:50:06;12.20;1.00
843;DHT22;407;48.884;9.126;2023-04-24T00:52:32;12.20;1.00
843;DHT22;407;48.884;9.126;2023-04-24T00:54:58;12.30;1.00
843;DHT22;407;48.884;9.126;2023-04-24T00:57:24;12.30;1.00
843;DHT22;407;48.884;9.126;2023-04-24T00:59:51;12.20;1.00
843;DHT22;407;48.884;9.126;2023-04-24T01:02:17;12.30;1.00
843;DHT22;407;48.884;9.126;2023-04-24T01:04:44;12.30;1.00
843;DHT22;407;48.884;9.126;2023-04-24T01:07:09;12.30;1.00
843;DHT22;407;48.884;9.126;2023-04-24T01:09:43;12.30;1.00
843;DHT22;407;48.884;9.126;2023-04-24T01:12:12;12.40;1.00
843;DHT22;407;48.884;9.126;2023-04-24T01:14:38;12.40;99.90
843;DHT22;407;48.884;9.126;2023-04-24T01:17:03;12.40;99.90
843;DHT22;407;48.884;9.126;2023-04-24T01:19:29;12.30;1.00
843;DHT22;407;48.884;9.126;2023-04-24T01:21:58;12.30;99.90
843;DHT22;407;48.884;9.126;2023-04-24T01:24:23;12.40;99.90
843;DHT22;407;48.884;9.126;2023-04-24T01:26:49;12.40;99.90
843;DHT22;407;48.884;9.126;2023-04-24T01:29:15;12.40;99.90
843;DHT22;407;48.884;9.126;2023-04-24T01:31:41;12.30;99.90
843;DHT22;407;48.884;9.126;2023-04-24T01:34:07;12.30;99.90
843;DHT22;407;48.884;9.126;2023-04-24T01:36:34;12.20;99.90
843;DHT22;407;48.884;9.126;2023-04-24T01:39:00;12.20;99.90
843;DHT22;407;48.884;9.126;2023-04-24T01:41:26;12.20;1.00
843;DHT22;407;48.884;9.126;2023-04-24T01:43:53;12.10;1.00
843;DHT22;407;48.884;9.126;2023-04-24T01:46:19;12.10;1.00
843;DHT22;407;48.884;9.126;2023-04-24T01:48:45;12.00;1.00
843;DHT22;407;48.884;9.126;2023-04-24T01:51:11;12.10;1.00
843;DHT22;407;48.884;9.126;2023-04-24T01:53:36;12.00;1.00
843;DHT22;407;48.884;9.126;2023-04-24T01:56:02;11.90;99.90
843;DHT22;407;48.884;9.126;2023-04-24T01:58:28;12.00;99.90
843;DHT22;407;48.884;9.126;2023-04-24T02:00:56;11.90;99.90
843;DHT22;407;48.884;9.126;2023-04-24T02:03:24;11.90;99.90
843;DHT22;407;48.884;9.126;2023-04-24T02:05:50;11.90;99.90
843;DHT22;407;48.884;9.126;2023-04-24T02:08:16;11.90;99.90
843;DHT22;407;48.884;9.126;2023-04-24T02:10:41;11.90;99.90
843;DHT22;407;48.884;9.126;2023-04-24T02:13:07;11.90;99.90
843;DHT22;407;48.884;9.126;2023-04-24T02:15:32;11.80;99.90
843;DHT22;407;48.884;9.126;2023-04-24T02:17:58;11.90;99.90
843;DHT22;407;48.884;9.126;2023-04-24T02:20:24;11.80;1.00
843;DHT22;407;48.884;9.126;2023-04-24T02:22:50;10.60;99.90
843;DHT22;407;48.884;9.126;2023-04-24T02:25:16;11.70;99.90
843;DHT22;407;48.884;9.126;2023-04-24T02:27:41;11.70;1.00
843;DHT22;407;48.884;9.126;2023-04-24T02:30:07;11.70;99.90
843;DHT22;407;48.884;9.126;2023-04-24T02:32:33;11.70;99.90
843;DHT22;407;48.884;9.126;2023-04-24T02:34:59;11.80;1.00
843;DHT22;407;48.884;9.126;2023-04-24T02:37:25;11.80;1.00
843;DHT22;407;48.884;9.126;2023-04-24T02:39:50;11.70;1.00
843;DHT22;407;48.884;9.126;2023-04-24T02:42:17;11.70;90.10
843;DHT22;407;48.884;9.126;2023-04-24T02:44:43;11.60;99.90
843;DHT22;407;48.884;9.126;2023-04-24T02:47:08;11.60;99.90
843;DHT22;407;48.884;9.126;2023-04-24T02:49:34;11.60;99.90
843;DHT22;407;48.884;9.126;2023-04-24T02:51:59;11.60;99.90
843;DHT22;407;48.884;9.126;2023-04-24T02:54:25;11.70;99.90
843;DHT22;407;48.884;9.126;2023-04-24T02:56:51;11.50;99.90
843;DHT22;407;48.884;9.126;2023-04-24T02:59:16;11.60;99.90
843;DHT22;407;48.884;9.126;2023-04-24T03:01:42;11.50;99.90
843;DHT22;407;48.884;9.126;2023-04-24T03:04:08;11.50;99.90
843;DHT22;407;48.884;9.126;2023-04-24T03:06:34;11.50;99.90
843;DHT22;407;48.884;9.126;2023-04-24T03:09:01;11.50;99.90
843;DHT22;407;48.884;9.126;2023-04-24T03:11:27;11.50;99.90
843;DHT22;407;48.884;9.126;2023-04-24T03:13:52;11.50;99.90
843;DHT22;407;48.884;9.126;2023-04-24T03:16:18;11.50;99.90
843;DHT22;407;48.884;9.126;2023-04-24T03:18:45;11.60;99.90
843;DHT22;407;48.884;9.126;2023-04-24T03:21:11;11.50;99.90
843;DHT22;407;48.884;9.126;2023-04-24T03:23:37;11.50;99.90
843;DHT22;407;48.884;9.126;2023-04-24T03:26:02;11.30;99.90
843;DHT22;407;48.884;9.126;2023-04-24T03:28:28;11.30;99.90
843;DHT22;407;48.884;9.126;2023-04-24T03:30:54;11.20;99.90
843;DHT22;407;48.884;9.126;2023-04-24T03:33:20;11.20;99.90
843;DHT22;407;48.884;9.126;2023-04-24T03:35:46;11.10;1.00
843;DHT22;407;48.884;9.126;2023-04-24T03:38:12;11.20;1.00
843;DHT22;407;48.884;9.126;2023-04-24T03:40:37;11.10;1.00
843;DHT22;407;48.884;9.126;2023-04-24T03:43:03;11.10;1.00
843;DHT22;407;48.884;9.126;2023-04-24T03:45:29;11.10;99.90
843;DHT22;407;48.884;9.126;2023-04-24T03:47:54;11.20;99.90
843;DHT22;407;48.884;9.126;2023-04-24T03:50:20;11.00;1.00
843;DHT22;407;48.884;9.126;2023-04-24T03:52:45;11.00;1.00
843;DHT22;407;48.884;9.126;2023-04-24T03:55:11;11.00;99.90
843;DHT22;407;48.884;9.126;2023-04-24T03:57:40;11.00;99.90
843;DHT22;407;48.884;9.126;2023-04-24T04:00:06;11.10;99.90
843;DHT22;407;48.884;9.126;2023-04-24T04:02:31;11.00;99.90
843;DHT22;407;48.884;9.126;2023-04-24T04:04:57;11.00;99.90
843;DHT22;407;48.884;9.126;2023-04-24T04:07:23;11.10;99.90
843;DHT22;407;48.884;9.126;2023-04-24T04:09:48;11.20;99.90
843;DHT22;407;48.884;9.126;2023-04-24T04:12:14;11.30;99.90
843;DHT22;407;48.884;9.126;2023-04-24T04:14:39;11.30;99.90
843;DHT22;407;48.884;9.126;2023-04-24T04:17:05;11.40;99.90
843;DHT22;407;48.884;9.126;2023-04-24T04:19:30;11.20;1.00
843;DHT22;407;48.884;9.126;2023-04-24T04:21:56;11.00;1.00
843;DHT22;407;48.884;9.126;2023-04-24T04:24:22;10.80;1.00
843;DHT22;407;48.884;9.126;2023-04-24T04:26:48;10.80;1.00
843;DHT22;407;48.884;9.126;2023-04-24T04:29:16;10.70;1.00
843;DHT22;407;48.884;9.126;2023-04-24T04:31:43;10.60;1.00
843;DHT22;407;48.884;9.126;2023-04-24T04:34:08;10.50;1.00
843;DHT22;407;48.884;9.126;2023-04-24T04:36:34;10.50;1.00
843;DHT22;407;48.884;9.126;2023-04-24T04:39:02;10.40;1.00
843;DHT22;407;48.884;9.126;2023-04-24T04:41:28;10.40;1.00
843;DHT22;407;48.884;9.126;2023-04-24T04:43:54;10.40;1.00
843;DHT22;407;48.884;9.126;2023-04-24T04:46:20;10.20;1.00
843;DHT22;407;48.884;9.126;2023-04-24T04:48:45;10.20;1.00
843;DHT22;407;48.884;9.126;2023-04-24T04:51:11;10.20;1.00
843;DHT22;407;48.884;9.126;2023-04-24T04:53:37;10.20;1.00
843;DHT22;407;48.884;9.126;2023-04-24T04:56:02;10.30;1.00
843;DHT22;407;48.884;9.126;2023-04-24T04:58:28;10.30;1.00
843;DHT22;407;48.884;9.126;2023-04-24T05:00:54;10.40;1.00
843;DHT22;407;48.884;9.126;2023-04-24T05:03:19;10.50;1.00
843;DHT22;407;48.884;9.126;2023-04-24T05:05:45;10.40;1.00
843;DHT22;407;48.884;9.126;2023-04-24T05:08:10;10.50;1.00
843;DHT22;407;48.884;9.126;2023-04-24T05:10:36;10.50;1.00
843;DHT22;407;48.884;9.126;2023-04-24T05:13:03;10.30;1.00
843;DHT22;407;48.884;9.126;2023-04-24T05:15:29;10.20;1.00
843;DHT22;407;48.884;9.126;2023-04-24T05:17:55;10.20;1.00
843;DHT22;407;48.884;9.126;2023-04-24T05:20:21;10.20;1.00
843;DHT22;407;48.884;9.126;2023-04-24T05:22:46;10.30;1.00
843;DHT22;407;48.884;9.126;2023-04-24T05:25:12;10.40;1.00
843;DHT22;407;48.884;9.126;2023-04-24T05:27:38;10.40;1.00
843;DHT22;407;48.884;9.126;2023-04-24T05:30:04;10.60;1.00
843;DHT22;407;48.884;9.126;2023-04-24T05:32:30;10.60;1.00
843;DHT22;407;48.884;9.126;2023-04-24T05:34:56;10.80;1.00
843;DHT22;407;48.884;9.126;2023-04-24T05:37:22;10.80;1.00
843;DHT22;407;48.884;9.126;2023-04-24T05:39:47;10.70;1.00
843;DHT22;407;48.884;9.126;2023-04-24T05:42:13;10.60;1.00
843;DHT22;407;48.884;9.126;2023-04-24T05:44:38;10.50;1.00
843;DHT22;407;48.884;9.126;2023-04-24T05:47:04;10.50;1.00
843;DHT22;407;48.884;9.126;2023-04-24T05:49:30;10.50;1.00
843;DHT22;407;48.884;9.126;2023-04-24T05:51:56;10.50;1.00
843;DHT22;407;48.884;9.126;2023-04-24T05:54:22;10.70;1.00
843;DHT22;407;48.884;9.126;2023-04-24T05:56:49;11.50;1.00
843;DHT22;407;48.884;9.126;2023-04-24T05:59:15;12.50;1.00
843;DHT22;407;48.884;9.126;2023-04-24T06:01:41;13.10;1.00
843;DHT22;407;48.884;9.126;2023-04-24T06:04:07;13.30;1.00
843;DHT22;407;48.884;9.126;2023-04-24T06:06:32;13.40;1.00
843;DHT22;407;48.884;9.126;2023-04-24T06:08:58;12.80;99.90
843;DHT22;407;48.884;9.126;2023-04-24T06:11:24;11.90;1.00
843;DHT22;407;48.884;9.126;2023-04-24T06:13:50;11.70;99.90
843;DHT22;407;48.884;9.126;2023-04-24T06:16:15;11.50;1.00
843;DHT22;407;48.884;9.126;2023-04-24T06:18:41;11.70;30.00
843;DHT22;407;48.884;9.126;2023-04-24T06:21:07;12.40;99.90
843;DHT22;407;48.884;9.126;2023-04-24T06:23:32;13.40;1.00
843;DHT22;407;48.884;9.126;2023-04-24T06:25:59;14.80;99.90
843;DHT22;407;48.884;9.126;2023-04-24T06:28:25;15.60;1.00
843;DHT22;407;48.884;9.126;2023-04-24T06:30:50;15.90;1.00
843;DHT22;407;48.884;9.126;2023-04-24T06:33:16;16.10;1.00
843;DHT22;407;48.884;9.126;2023-04-24T06:35:42;15.30;1.00
843;DHT22;407;48.884;9.126;2023-04-24T06:38:08;14.20;1.00
843;DHT22;407;48.884;9.126;2023-04-24T06:40:33;13.50;1.00
843;DHT22;407;48.884;9.126;2023-04-24T06:42:59;12.90;95.00
843;DHT22;407;48.884;9.126;2023-04-24T06:45:28;12.50;39.20
843;DHT22;407;48.884;9.126;2023-04-24T06:47:54;12.60;99.90
843;DHT22;407;48.884;9.126;2023-04-24T06:50:19;12.80;99.90
843;DHT22;407;48.884;9.126;2023-04-24T06:52:45;13.00;99.90
843;DHT22;407;48.884;9.126;2023-04-24T06:55:11;13.30;99.90
843;DHT22;407;48.884;9.126;2023-04-24T06:57:37;13.60;12.80
843;DHT22;407;48.884;9.126;2023-04-24T07:00:04;14.40;1.00
843;DHT22;407;48.884;9.126;2023-04-24T07:02:30;15.20;1.00
843;DHT22;407;48.884;9.126;2023-04-24T07:04:56;15.80;1.00
843;DHT22;407;48.884;9.126;2023-04-24T07:07:22;16.20;1.00
843;DHT22;407;48.884;9.126;2023-04-24T07:09:49;16.50;1.00
843;DHT22;407;48.884;9.126;2023-04-24T07:12:16;16.00;1.00
843;DHT22;407;48.884;9.126;2023-04-24T07:14:42;15.50;1.00
843;DHT22;407;48.884;9.126;2023-04-24T07:17:08;15.30;1.00
843;DHT22;407;48.884;9.126;2023-04-24T07:19:34;14.40;1.00
843;DHT22;407;48.884;9.126;2023-04-24T07:22:02;13.70;1.00
843;DHT22;407;48.884;9.126;2023-04-24T07:24:29;12.80;1.00
843;DHT22;407;48.884;9.126;2023-04-24T07:26:55;12.60;1.00
843;DHT22;407;48.884;9.126;2023-04-24T07:29:21;12.30;1.00
843;DHT22;407;48.884;9.126;2023-04-24T07:31:46;12.60;1.00
843;DHT22;407;48.884;9.126;2023-04-24T07:34:12;13.10;1.00
843;DHT22;407;48.884;9.126;2023-04-24T07:36:38;13.20;1.00
843;DHT22;407;48.884;9.126;2023-04-24T07:39:04;12.40;1.00
843;DHT22;407;48.884;9.126;2023-04-24T07:41:30;12.50;1.00
843;DHT22;407;48.884;9.126;2023-04-24T07:43:56;12.30;1.00
843;DHT22;407;48.884;9.126;2023-04-24T07:46:21;12.30;1.00
843;DHT22;407;48.884;9.126;2023-04-24T07:48:49;12.40;1.00
843;DHT22;407;48.884;9.126;2023-04-24T07:51:15;12.40;1.00
843;DHT22;407;48.884;9.126;2023-04-24T07:53:41;13.20;1.00
843;DHT22;407;48.884;9.126;2023-04-24T07:56:07;13.60;1.00
843;DHT22;407;48.884;9.126;2023-04-24T07:58:33;13.80;1.00
843;DHT22;407;48.884;9.126;2023-04-24T08:00:59;13.00;1.00
843;DHT22;407;48.884;9.126;2023-04-24T08:03:24;12.70;1.00
843;DHT22;407;48.884;9.126;2023-04-24T08:05:50;12.30;1.00
843;DHT22;407;48.884;9.126;2023-04-24T08:08:19;12.10;1.00
843;DHT22;407;48.884;9.126;2023-04-24T08:10:45;12.10;1.00
843;DHT22;407;48.884;9.126;2023-04-24T08:13:10;12.10;1.00
843;DHT22;407;48.884;9.126;2023-04-24T08:15:37;12.40;1.00
843;DHT22;407;48.884;9.126;2023-04-24T08:18:02;12.70;1.00
843;DHT22;407;48.884;9.126;2023-04-24T08:20:28;12.90;1.00
843;DHT22;407;48.884;9.126;2023-04-24T08:22:54;12.40;99.90
843;DHT22;407;48.884;9.126;2023-04-24T08:25:20;12.30;99.90
843;DHT22;407;48.884;9.126;2023-04-24T08:27:48;12.80;99.90
843;DHT22;407;48.884;9.126;2023-04-24T08:30:14;13.70;99.90
843;DHT22;407;48.884;9.126;2023-04-24T08:32:40;14.10;99.90
843;DHT22;407;48.884;9.126;2023-04-24T08:35:05;13.90;99.90
843;DHT22;407;48.884;9.126;2023-04-24T08:37:33;13.50;99.90
843;DHT22;407;48.884;9.126;2023-04-24T08:39:59;13.60;99.90
843;DHT22;407;48.884;9.126;2023-04-24T08:42:28;14.00;99.90
843;DHT22;407;48.884;9.126;2023-04-24T08:44:54;14.70;99.90
843;DHT22;407;48.884;9.126;2023-04-24T08:47:20;14.60;99.90
843;DHT22;407;48.884;9.126;2023-04-24T08:49:48;14.50;99.90
843;DHT22;407;48.884;9.126;2023-04-24T08:52:15;13.60;99.90
843;DHT22;407;48.884;9.126;2023-04-24T08:54:41;13.50;99.90
843;DHT22;407;48.884;9.126;2023-04-24T08:57:09;12.80;99.90
843;DHT22;407;48.884;9.126;2023-04-24T08:59:38;12.80;99.90
843;DHT22;407;48.884;9.126;2023-04-24T09:02:04;13.00;99.90
843;DHT22;407;48.884;9.126;2023-04-24T09:04:30;12.90;99.90
843;DHT22;407;48.884;9.126;2023-04-24T09:06:58;12.80;99.90
843;DHT22;407;48.884;9.126;2023-04-24T09:09:25;12.60;99.90
843;DHT22;407;48.884;9.126;2023-04-24T09:11:52;12.50;99.90
843;DHT22;407;48.884;9.126;2023-04-24T09:14:20;12.60;99.90
843;DHT22;407;48.884;9.126;2023-04-24T09:16:46;12.00;99.90
843;DHT22;407;48.884;9.126;2023-04-24T09:19:12;11.80;99.90
843;DHT22;407;48.884;9.126;2023-04-24T09:21:38;11.80;99.90
843;DHT22;407;48.884;9.126;2023-04-24T09:24:07;11.90;99.90
843;DHT22;407;48.884;9.126;2023-04-24T09:26:35;12.20;99.90
843;DHT22;407;48.884;9.126;2023-04-24T09:29:02;12.40;99.90
843;DHT22;407;48.884;9.126;2023-04-24T09:31:29;12.30;99.90
843;DHT22;407;48.884;9.126;2023-04-24T09:38:59;14.80;99.90
843;DHT22;407;48.884;9.126;2023-04-24T09:41:26;15.60;99.90
843;DHT22;407;48.884;9.126;2023-04-24T09:43:54;14.80;99.90
843;DHT22;407;48.884;9.126;2023-04-24T09:46:20;14.60;99.90
843;DHT22;407;48.884;9.126;2023-04-24T09:48:47;14.30;99.90
843;DHT22;407;48.884;9.126;2023-04-24T09:51:13;14.10;99.90
843;DHT22;407;48.884;9.126;2023-04-24T09:53:45;13.40;99.90
843;DHT22;407;48.884;9.126;2023-04-24T09:56:11;12.90;99.90
843;DHT22;407;48.884;9.126;2023-04-24T09:58:40;12.70;99.90
843;DHT22;407;48.884;9.126;2023-04-24T10:01:05;13.20;99.90
843;DHT22;407;48.884;9.126;2023-04-24T10:03:32;14.20;99.90
843;DHT22;407;48.884;9.126;2023-04-24T10:06:00;15.00;99.90
843;DHT22;407;48.884;9.126;2023-04-24T10:08:33;15.30;99.90
843;DHT22;407;48.884;9.126;2023-04-24T10:11:00;15.80;99.90
843;DHT22;407;48.884;9.126;2023-04-24T10:13:26;16.00;99.90
843;DHT22;407;48.884;9.126;2023-04-24T10:15:51;14.20;99.90
843;DHT22;407;48.884;9.126;2023-04-24T10:18:17;13.40;99.90
843;DHT22;407;48.884;9.126;2023-04-24T10:20:44;13.00;99.90
843;DHT22;407;48.884;9.126;2023-04-24T10:23:10;12.90;99.90
843;DHT22;407;48.884;9.126;2023-04-24T10:25:37;12.70;99.90
843;DHT22;407;48.884;9.126;2023-04-24T10:28:03;12.70;99.90
843;DHT22;407;48.884;9.126;2023-04-24T10:30:33;12.90;99.90
843;DHT22;407;48.884;9.126;2023-04-24T10:33:04;12.60;99.90
843;DHT22;407;48.884;9.126;2023-04-24T10:35:39;12.40;99.90
843;DHT22;407;48.884;9.126;2023-04-24T10:38:08;12.20;99.90
843;DHT22;407;48.884;9.126;2023-04-24T10:40:35;12.20;99.90
843;DHT22;407;48.884;9.126;2023-04-24T10:43:08;11.90;99.90
843;DHT22;407;48.884;9.126;2023-04-24T10:45:36;11.80;99.90
843;DHT22;407;48.884;9.126;2023-04-24T10:48:03;11.70;99.90
843;DHT22;407;48.884;9.126;2023-04-24T10:50:41;11.90;99.90
843;DHT22;407;48.884;9.126;2023-04-24T10:53:16;12.00;99.90
843;DHT22;407;48.884;9.126;2023-04-24T10:55:45;12.10;99.90
843;DHT22;407;48.884;9.126;2023-04-24T10:58:11;12.20;99.90
843;DHT22;407;48.884;9.126;2023-04-24T11:00:39;12.40;99.90
843;DHT22;407;48.884;9.126;2023-04-24T11:03:06;12.60;99.90
843;DHT22;407;48.884;9.126;2023-04-24T11:06:00;12.70;99.90
843;DHT22;407;48.884;9.126;2023-04-24T11:08:31;12.50;99.90
843;DHT22;407;48.884;9.126;2023-04-24T11:11:18;12.30;99.90
843;DHT22;407;48.884;9.126;2023-04-24T11:21:46;13.20;99.90
843;DHT22;407;48.884;9.126;2023-04-24T11:27:14;13.10;99.90
843;DHT22;407;48.884;9.126;2023-04-24T11:32:16;12.90;99.90
843;DHT22;407;48.884;9.126;2023-04-24T11:34:57;14.10;99.90
843;DHT22;407;48.884;9.126;2023-04-24T11:37:25;13.10;99.90
843;DHT22;407;48.884;9.126;2023-04-24T11:39:58;13.20;99.90
843;DHT22;407;48.884;9.126;2023-04-24T11:42:24;13.00;99.90
843;DHT22;407;48.884;9.126;2023-04-24T11:44:55;12.60;99.90
843;DHT22;407;48.884;9.126;2023-04-24T11:47:30;12.30;99.90
843;DHT22;407;48.884;9.126;2023-04-24T11:49:58;12.30;99.90
843;DHT22;407;48.884;9.126;2023-04-24T11:52:24;12.40;99.90
843;DHT22;407;48.884;9.126;2023-04-24T11:54:50;12.70;99.90
843;DHT22;407;48.884;9.126;2023-04-24T11:57:16;12.90;99.90
843;DHT22;407;48.884;9.126;2023-04-24T11:59:42;13.00;99.90
843;DHT22;407;48.884;9.126;2023-04-24T12:02:07;13.00;99.90
843;DHT22;407;48.884;9.126;2023-04-24T12:04:40;12.70;99.90
843;DHT22;407;48.884;9.126;2023-04-24T12:07:08;13.00;99.90
843;DHT22;407;48.884;9.126;2023-04-24T12:09:46;13.00;99.90
843;DHT22;407;48.884;9.126;2023-04-24T12:12:17;12.90;99.90
843;DHT22;407;48.884;9.126;2023-04-24T12:14:44;12.90;99.90
843;DHT22;407;48.884;9.126;2023-04-24T12:17:10;12.70;99.90
843;DHT22;407;48.884;9.126;2023-04-24T12:19:35;12.50;99.90
843;DHT22;407;48.884;9.126;2023-04-24T12:22:03;12.30;99.90
843;DHT22;407;48.884;9.126;2023-04-24T12:24:30;12.10;99.90
843;DHT22;407;48.884;9.126;2023-04-24T12:26:56;12.00;99.90
843;DHT22;407;48.884;9.126;2023-04-24T12:29:23;12.00;99.90
843;DHT22;407;48.884;9.126;2023-04-24T12:31:50;12.30;99.90
843;DHT22;407;48.884;9.126;2023-04-24T12:34:20;12.10;99.90
843;DHT22;407;48.884;9.126;2023-04-24T12:36:47;12.00;99.90
843;DHT22;407;48.884;9.126;2023-04-24T12:39:16;12.20;99.90
843;DHT22;407;48.884;9.126;2023-04-24T12:41:55;12.50;99.90
843;DHT22;407;48.884;9.126;2023-04-24T12:44:34;12.80;99.90
843;DHT22;407;48.884;9.126;2023-04-24T12:47:01;11.40;99.90
843;DHT22;407;48.884;9.126;2023-04-24T12:49:29;13.30;99.90
843;DHT22;407;48.884;9.126;2023-04-24T12:51:55;13.00;99.90
843;DHT22;407;48.884;9.126;2023-04-24T12:54:22;12.80;99.90
843;DHT22;407;48.884;9.126;2023-04-24T12:56:47;12.40;99.90
843;DHT22;407;48.884;9.126;2023-04-24T12:59:14;12.00;99.90
843;DHT22;407;48.884;9.126;2023-04-24T13:01:41;11.70;99.90
843;DHT22;407;48.884;9.126;2023-04-24T13:04:06;11.80;99.90
843;DHT22;407;48.884;9.126;2023-04-24T13:06:32;12.50;99.90
843;DHT22;407;48.884;9.126;2023-04-24T13:08:58;13.20;99.90
843;DHT22;407;48.884;9.126;2023-04-24T13:11:24;13.30;99.90
843;DHT22;407;48.884;9.126;2023-04-24T13:13:50;13.10;99.90
843;DHT22;407;48.884;9.126;2023-04-24T13:16:15;12.80;99.90
843;DHT22;407;48.884;9.126;2023-04-24T13:18:41;12.90;99.90
843;DHT22;407;48.884;9.126;2023-04-24T13:21:07;12.40;99.90
843;DHT22;407;48.884;9.126;2023-04-24T13:23:32;12.50;99.90
843;DHT22;407;48.884;9.126;2023-04-24T13:25:58;12.70;99.90
843;DHT22;407;48.884;9.126;2023-04-24T13:28:27;12.60;99.90
843;DHT22;407;48.884;9.126;2023-04-24T13:30:54;13.00;99.90
843;DHT22;407;48.884;9.126;2023-04-24T13:33:20;12.90;99.90
843;DHT22;407;48.884;9.126;2023-04-24T13:35:45;12.90;99.90
843;DHT22;407;48.884;9.126;2023-04-24T13:38:11;12.70;99.90
843;DHT22;407;48.884;9.126;2023-04-24T13:40:36;12.80;99.90
843;DHT22;407;48.884;9.126;2023-04-24T13:43:02;12.90;99.90
843;DHT22;407;48.884;9.126;2023-04-24T13:45:28;12.70;99.90
843;DHT22;407;48.884;9.126;2023-04-24T13:47:54;12.90;99.90
843;DHT22;407;48.884;9.126;2023-04-24T13:50:20;12.80;99.90
843;DHT22;407;48.884;9.126;2023-04-24T13:52:46;12.70;99.90
843;DHT22;407;48.884;9.126;2023-04-24T13:55:11;12.60;99.90
843;DHT22;407;48.884;9.126;2023-04-24T13:57:37;12.40;99.90
843;DHT22;407;48.884;9.126;2023-04-24T14:00:03;12.50;99.90
843;DHT22;407;48.884;9.126;2023-04-24T14:02:29;12.90;99.90
843;DHT22;407;48.884;9.126;2023-04-24T14:04:56;13.00;99.90
843;DHT22;407;48.884;9.126;2023-04-24T14:07:22;12.70;99.90
843;DHT22;407;48.884;9.126;2023-04-24T14:09:47;12.90;99.90
843;DHT22;407;48.884;9.126;2023-04-24T14:12:16;12.80;99.90
843;DHT22;407;48.884;9.126;2023-04-24T14:14:45;12.80;99.90
843;DHT22;407;48.884;9.126;2023-04-24T14:17:12;12.60;99.90
843;DHT22;407;48.884;9.126;2023-04-24T14:19:38;12.60;99.90
843;DHT22;407;48.884;9.126;2023-04-24T14:22:03;12.70;99.90
843;DHT22;407;48.884;9.126;2023-04-24T14:24:29;12.60;99.90
843;DHT22;407;48.884;9.126;2023-04-24T14:26:54;12.80;99.90
843;DHT22;407;48.884;9.126;2023-04-24T14:29:21;12.70;99.90
843;DHT22;407;48.884;9.126;2023-04-24T14:31:47;12.50;99.90
843;DHT22;407;48.884;9.126;2023-04-24T14:34:13;12.60;99.90
843;DHT22;407;48.884;9.126;2023-04-24T14:36:39;12.50;99.90
843;DHT22;407;48.884;9.126;2023-04-24T14:39:06;12.70;99.90
843;DHT22;407;48.884;9.126;2023-04-24T14:41:32;12.60;99.90
843;DHT22;407;48.884;9.126;2023-04-24T14:44:01;12.70;99.90
843;DHT22;407;48.884;9.126;2023-04-24T14:46:28;12.90;99.90
843;DHT22;407;48.884;9.126;2023-04-24T14:48:58;12.90;99.90
843;DHT22;407;48.884;9.126;2023-04-24T14:51:24;12.80;99.90
843;DHT22;407;48.884;9.126;2023-04-24T14:53:50;13.00;99.90
843;DHT22;407;48.884;9.126;2023-04-24T14:56:17;13.30;99.90
843;DHT22;407;48.884;9.126;2023-04-24T14:58:42;14.00;99.90
843;DHT22;407;48.884;9.126;2023-04-24T15:01:08;12.90;99.90
843;DHT22;407;48.884;9.126;2023-04-24T15:03:34;13.40;99.90
843;DHT22;407;48.884;9.126;2023-04-24T15:06:00;13.60;99.90
843;DHT22;407;48.884;9.126;2023-04-24T15:08:26;13.90;99.90
843;DHT22;407;48.884;9.126;2023-04-24T15:10:52;13.30;99.90
843;DHT22;407;48.884;9.126;2023-04-24T15:13:18;12.90;99.90
843;DHT22;407;48.884;9.126;2023-04-24T15:15:46;12.60;99.90
843;DHT22;407;48.884;9.126;2023-04-24T15:18:11;12.40;99.90
843;DHT22;407;48.884;9.126;2023-04-24T15:20:37;12.40;99.90
843;DHT22;407;48.884;9.126;2023-04-24T15:23:05;12.50;99.90
843;DHT22;407;48.884;9.126;2023-04-24T15:25:31;12.50;99.90
843;DHT22;407;48.884;9.126;2023-04-24T15:27:57;12.30;99.90
843;DHT22;407;48.884;9.126;2023-04-24T15:30:24;12.40;99.90
843;DHT22;407;48.884;9.126;2023-04-24T15:32:49;12.60;99.90
843;DHT22;407;48.884;9.126;2023-04-24T15:35:16;12.80;99.90
843;DHT22;407;48.884;9.126;2023-04-24T15:37:42;13.00;99.90
843;DHT22;407;48.884;9.126;2023-04-24T15:40:09;13.20;99.90
843;DHT22;407;48.884;9.126;2023-04-24T15:42:36;13.20;99.90
843;DHT22;407;48.884;9.126;2023-04-24T15:45:02;13.10;99.90
843;DHT22;407;48.884;9.126;2023-04-24T15:47:30;13.10;99.90
843;DHT22;407;48.884;9.126;2023-04-24T15:49:57;13.10;99.90
843;DHT22;407;48.884;9.126;2023-04-24T15:52:24;13.10;99.90
843;DHT22;407;48.884;9.126;2023-04-24T15:54:50;13.00;99.90
843;DHT22;407;48.884;9.126;2023-04-24T15:57:15;13.00;99.90
843;DHT22;407;48.884;9.126;2023-04-24T15:59:43;13.00;99.90
843;DHT22;407;48.884;9.126;2023-04-24T16:02:12;12.80;99.90
843;DHT22;407;48.884;9.126;2023-04-24T16:04:47;12.90;99.90
843;DHT22;407;48.884;9.126;2023-04-24T16:07:15;12.80;99.90
843;DHT22;407;48.884;9.126;2023-04-24T16:09:44;12.90;99.90
843;DHT22;407;48.884;9.126;2023-04-24T16:12:10;13.00;99.90
843;DHT22;407;48.884;9.126;2023-04-24T16:14:37;12.70;99.90
843;DHT22;407;48.884;9.126;2023-04-24T16:17:03;12.80;99.90
843;DHT22;407;48.884;9.126;2023-04-24T16:19:29;13.00;99.90
843;DHT22;407;48.884;9.126;2023-04-24T16:21:55;12.80;99.90
843;DHT22;407;48.884;9.126;2023-04-24T16:24:22;12.90;99.90
843;DHT22;407;48.884;9.126;2023-04-24T16:26:49;13.00;99.90
843;DHT22;407;48.884;9.126;2023-04-24T16:29:15;13.00;99.90
843;DHT22;407;48.884;9.126;2023-04-24T16:31:41;12.60;99.90
843;DHT22;407;48.884;9.126;2023-04-24T16:34:07;12.50;99.90
843;DHT22;407;48.884;9.126;2023-04-24T16:36:33;12.50;99.90
843;DHT22;407;48.884;9.126;2023-04-24T16:38:58;12.50;99.90
843;DHT22;407;48.884;9.126;2023-04-24T16:41:26;12.50;99.90
843;DHT22;407;48.884;9.126;2023-04-24T16:43:52;12.40;99.90
843;DHT22;407;48.884;9.126;2023-04-24T16:46:18;12.40;99.90
843;DHT22;407;48.884;9.126;2023-04-24T16:48:43;12.30;99.90
843;DHT22;407;48.884;9.126;2023-04-24T16:51:09;12.20;99.90
843;DHT22;407;48.884;9.126;2023-04-24T16:53:35;12.30;99.90